Time;durP1;ratioP1;P1;durP2;ratioP2;P2;SDS_P1;SDS_P2;PMS_P1;PMS_P2;Temp;Humidity;BMP_temperature;BMP_pressure;BME280_temperature;BME280_humidity;BME280_pressure;Samples;Min_cycle;Max_cycle;Signal;HPM_P1;HPM_P2
2023/12/31 00:00:09;;;;;;;1.43;0.70;;;;;;;;;;5004255;28;20038;-95
2023/12/31 00:02:34;;;;;;;3.80;0.80;;;;;;;;;;4988420;28;20090;-95
2023/12/31 00:05:00;;;;;;;3.63;0.57;;;;;;;;;;4977166;28;20062;-93
2023/12/31 00:07:26;;;;;;;2.13;0.80;;;;;;;;;;4992986;28;20030;-93
2023/12/31 00:09:52;;;;;;;0.88;0.57;;;;;;;;;;4992509;28;20121;-94
2023/12/31 00:12:17;;;;;;;1.67;0.60;;;;;;;;;;4993251;28;20038;-94
2023/12/31 00:14:42;;;;;;;1.53;0.80;;;;;;;;;;4995851;28;20026;-94
2023/12/31 00:17:07;;;;;;;1.60;0.87;;;;;;;;;;5004694;28;20422;-93
2023/12/31 00:19:32;;;;;;;4.23;0.97;;;;;;;;;;4991237;28;20580;-94
2023/12/31 00:21:58;;;;;;;3.07;0.80;;;;;;;;;;4992730;28;20368;-94
2023/12/31 00:24:23;;;;;;;2.10;0.73;;;;;;;;;;4974914;28;20096;-93
2023/12/31 00:26:48;;;;;;;2.80;0.70;;;;;;;;;;5008758;28;20022;-94
2023/12/31 00:29:13;;;;;;;1.73;0.67;;;;;;;;;;4975661;28;20025;-93
2023/12/31 00:31:39;;;;;;;4.40;0.80;;;;;;;;;;4973544;28;20100;-93
2023/12/31 00:34:04;;;;;;;1.27;0.60;;;;;;;;;;4992768;28;20096;-95
2023/12/31 00:36:31;;;;;;;2.90;0.70;;;;;;;;;;4993565;28;20054;-94
2023/12/31 00:38:56;;;;;;;2.05;0.73;;;;;;;;;;4992062;28;20371;-93
2023/12/31 00:41:21;;;;;;;2.83;0.87;;;;;;;;;;4992869;28;20105;-93
2023/12/31 00:43:46;;;;;;;1.73;0.80;;;;;;;;;;4997235;28;20033;-91
2023/12/31 00:46:13;;;;;;;1.57;0.53;;;;;;;;;;5002217;28;20110;-92
2023/12/31 00:48:38;;;;;;;2.15;0.88;;;;;;;;;;4993370;28;20025;-91
2023/12/31 00:51:03;;;;;;;2.77;0.87;;;;;;;;;;4978801;28;20113;-91
2023/12/31 00:53:29;;;;;;;1.17;0.70;;;;;;;;;;4975758;28;20055;-91
2023/12/31 00:55:54;;;;;;;1.80;0.80;;;;;;;;;;4975062;28;20137;-92
2023/12/31 00:58:19;;;;;;;2.27;0.73;;;;;;;;;;4991690;28;20035;-92
2023/12/31 01:00:44;;;;;;;2.33;0.77;;;;;;;;;;4991904;28;20548;-90
2023/12/31 01:03:09;;;;;;;1.57;0.70;;;;;;;;;;4992300;28;20316;-91
2023/12/31 01:05:34;;;;;;;1.27;0.73;;;;;;;;;;4992374;28;20030;-91
2023/12/31 01:08:00;;;;;;;2.57;0.80;;;;;;;;;;4992130;28;20027;-92
2023/12/31 01:10:25;;;;;;;1.63;0.80;;;;;;;;;;4988407;28;20030;-92
2023/12/31 01:12:50;;;;;;;4.17;0.80;;;;;;;;;;4972638;28;20160;-92
2023/12/31 01:15:16;;;;;;;3.80;0.80;;;;;;;;;;4979148;28;20014;-91
2023/12/31 01:17:41;;;;;;;1.57;0.60;;;;;;;;;;4994206;28;20025;-91
2023/12/31 01:20:08;;;;;;;3.50;0.90;;;;;;;;;;4993264;28;20525;-91
2023/12/31 01:22:33;;;;;;;2.38;0.60;;;;;;;;;;4974746;28;20015;-92
2023/12/31 01:24:58;;;;;;;2.53;0.70;;;;;;;;;;4991573;28;20161;-91
2023/12/31 01:27:23;;;;;;;1.83;0.60;;;;;;;;;;4988920;28;20591;-92
2023/12/31 01:29:49;;;;;;;3.13;0.70;;;;;;;;;;4979581;28;20042;-91
2023/12/31 01:32:14;;;;;;;1.20;0.70;;;;;;;;;;4995160;28;20030;-92
2023/12/31 01:34:39;;;;;;;3.60;0.90;;;;;;;;;;4994057;28;20092;-90
2023/12/31 01:37:05;;;;;;;1.77;0.80;;;;;;;;;;5002361;28;20050;-92
2023/12/31 01:39:31;;;;;;;1.87;0.70;;;;;;;;;;4993480;28;20281;-91
2023/12/31 01:41:56;;;;;;;2.80;0.73;;;;;;;;;;4991499;28;20133;-91
2023/12/31 01:44:21;;;;;;;1.77;0.70;;;;;;;;;;4990597;28;20128;-92
2023/12/31 01:46:47;;;;;;;1.13;0.80;;;;;;;;;;4973930;28;20050;-91
2023/12/31 01:49:13;;;;;;;3.00;0.90;;;;;;;;;;4990866;28;20029;-91
2023/12/31 01:51:38;;;;;;;1.85;0.75;;;;;;;;;;4991216;28;20022;-91
2023/12/31 01:54:04;;;;;;;1.40;0.87;;;;;;;;;;4990811;28;20033;-91
2023/12/31 01:56:31;;;;;;;1.65;0.75;;;;;;;;;;4990568;28;20018;-91
2023/12/31 01:58:57;;;;;;;2.27;0.70;;;;;;;;;;4990636;28;20580;-90
2023/12/31 02:01:22;;;;;;;1.80;0.77;;;;;;;;;;4990924;28;20264;-92
2023/12/31 02:03:48;;;;;;;2.60;1.10;;;;;;;;;;4990750;28;20491;-92
2023/12/31 02:06:13;;;;;;;1.97;0.80;;;;;;;;;;4990535;28;20387;-92
2023/12/31 02:08:39;;;;;;;2.80;0.97;;;;;;;;;;4991250;28;20023;-92
2023/12/31 02:11:05;;;;;;;3.80;1.00;;;;;;;;;;4990948;28;20349;-91
2023/12/31 02:13:31;;;;;;;2.28;0.73;;;;;;;;;;4990224;28;20026;-91
2023/12/31 02:15:56;;;;;;;1.70;0.90;;;;;;;;;;4990970;28;20121;-92
2023/12/31 02:18:21;;;;;;;1.00;0.80;;;;;;;;;;4991436;28;20490;-91
2023/12/31 02:20:46;;;;;;;1.10;0.80;;;;;;;;;;4995034;28;20084;-92
2023/12/31 02:23:11;;;;;;;1.47;0.90;;;;;;;;;;5000623;28;20018;-92
2023/12/31 02:25:41;;;;;;;3.90;0.70;;;;;;;;;;5017970;28;20038;-92
2023/12/31 02:28:13;;;;;;;1.38;0.90;;;;;;;;;;5000031;28;20023;-91
2023/12/31 02:30:38;;;;;;;1.58;0.70;;;;;;;;;;4972059;28;20023;-92
2023/12/31 02:33:03;;;;;;;2.53;0.70;;;;;;;;;;4986770;28;20153;-91
2023/12/31 02:35:28;;;;;;;5.40;0.90;;;;;;;;;;4991627;28;20017;-92
2023/12/31 02:37:53;;;;;;;0.83;0.57;;;;;;;;;;4993243;28;20482;-92
2023/12/31 02:40:18;;;;;;;1.90;0.87;;;;;;;;;;4992748;28;20130;-91
2023/12/31 02:42:44;;;;;;;2.90;0.80;;;;;;;;;;5002354;28;20090;-91
2023/12/31 02:45:09;;;;;;;1.07;0.70;;;;;;;;;;5008204;28;20488;-92
2023/12/31 02:47:34;;;;;;;1.80;1.00;;;;;;;;;;4995499;28;20057;-90
2023/12/31 02:49:59;;;;;;;1.40;0.80;;;;;;;;;;4994586;28;20153;-91
2023/12/31 02:52:25;;;;;;;1.23;0.80;;;;;;;;;;4995760;28;20101;-91
2023/12/31 02:54:50;;;;;;;2.67;0.70;;;;;;;;;;4976751;28;20030;-91
2023/12/31 02:57:15;;;;;;;3.37;0.90;;;;;;;;;;4995344;28;20361;-90
2023/12/31 02:59:40;;;;;;;1.57;0.80;;;;;;;;;;4995066;28;20133;-91
2023/12/31 03:02:06;;;;;;;1.80;0.90;;;;;;;;;;4993345;28;20025;-91
2023/12/31 03:04:31;;;;;;;2.20;0.70;;;;;;;;;;4976115;28;20463;-91
2023/12/31 03:06:56;;;;;;;1.73;0.73;;;;;;;;;;4977850;28;20030;-91
2023/12/31 03:09:21;;;;;;;2.17;0.70;;;;;;;;;;4984234;28;20034;-91
2023/12/31 03:11:47;;;;;;;2.60;1.10;;;;;;;;;;5000382;28;20116;-92
2023/12/31 03:14:15;;;;;;;2.25;0.90;;;;;;;;;;4995984;28;20054;-91
2023/12/31 03:16:44;;;;;;;1.92;0.90;;;;;;;;;;4995606;28;20057;-91
2023/12/31 03:19:13;;;;;;;2.63;0.70;;;;;;;;;;4994733;28;20018;-91
2023/12/31 03:21:38;;;;;;;1.55;0.90;;;;;;;;;;5007331;28;20014;-90
2023/12/31 03:24:04;;;;;;;1.00;0.80;;;;;;;;;;5014710;28;20104;-91
2023/12/31 03:26:29;;;;;;;2.40;1.00;;;;;;;;;;5010270;28;20033;-91
2023/12/31 03:28:54;;;;;;;2.20;1.00;;;;;;;;;;4993152;28;20018;-92
2023/12/31 03:31:19;;;;;;;1.40;0.80;;;;;;;;;;4994520;28;20117;-91
2023/12/31 03:33:46;;;;;;;1.40;1.00;;;;;;;;;;4993060;28;20022;-92
2023/12/31 03:36:11;;;;;;;2.05;1.00;;;;;;;;;;4994254;28;20509;-91
2023/12/31 03:38:36;;;;;;;1.63;0.87;;;;;;;;;;4993316;28;20041;-91
2023/12/31 03:41:01;;;;;;;2.77;1.10;;;;;;;;;;4992729;28;20018;-91
2023/12/31 03:43:27;;;;;;;3.00;1.10;;;;;;;;;;4994422;28;20390;-91
2023/12/31 03:45:52;;;;;;;1.67;1.10;;;;;;;;;;5008655;28;20022;-91
2023/12/31 03:48:17;;;;;;;2.37;1.20;;;;;;;;;;5009492;28;20026;-90
2023/12/31 03:50:42;;;;;;;3.17;1.27;;;;;;;;;;5005978;28;20506;-92
2023/12/31 03:53:08;;;;;;;1.30;0.80;;;;;;;;;;4990564;28;20050;-90
2023/12/31 03:55:33;;;;;;;3.20;0.90;;;;;;;;;;5008826;28;20022;-91
2023/12/31 03:58:01;;;;;;;1.90;1.10;;;;;;;;;;5010371;28;20003;-91
2023/12/31 04:00:27;;;;;;;1.90;1.05;;;;;;;;;;5008908;28;20030;-91
2023/12/31 04:02:52;;;;;;;1.10;0.80;;;;;;;;;;5013702;28;20431;-91
2023/12/31 04:05:17;;;;;;;1.43;1.00;;;;;;;;;;5010294;28;20485;-91
2023/12/31 04:07:42;;;;;;;0.93;0.80;;;;;;;;;;4997847;28;20415;-91
2023/12/31 04:10:08;;;;;;;2.42;0.90;;;;;;;;;;4970112;28;20547;-92
2023/12/31 04:12:33;;;;;;;2.67;1.00;;;;;;;;;;4991634;28;20026;-91
2023/12/31 04:14:58;;;;;;;2.23;1.10;;;;;;;;;;4991641;28;20525;-91
2023/12/31 04:17:24;;;;;;;1.63;0.80;;;;;;;;;;4993144;28;20046;-91
2023/12/31 04:19:49;;;;;;;1.77;0.97;;;;;;;;;;4991999;28;20105;-90
2023/12/31 04:22:14;;;;;;;1.27;0.90;;;;;;;;;;4997231;28;20454;-92
2023/12/31 04:24:39;;;;;;;2.33;1.00;;;;;;;;;;4990901;28;20034;-91
2023/12/31 04:27:04;;;;;;;3.07;1.00;;;;;;;;;;4991052;28;20497;-91
2023/12/31 04:29:30;;;;;;;2.43;1.20;;;;;;;;;;4974380;28;20466;-92
2023/12/31 04:31:55;;;;;;;2.43;1.10;;;;;;;;;;4992460;28;20022;-91
2023/12/31 04:34:20;;;;;;;1.23;1.13;;;;;;;;;;4974610;28;20031;-91
2023/12/31 04:36:45;;;;;;;2.53;1.40;;;;;;;;;;4996449;28;20018;-91
2023/12/31 04:39:11;;;;;;;1.60;0.93;;;;;;;;;;5010808;28;20034;-91
2023/12/31 04:41:38;;;;;;;2.28;1.33;;;;;;;;;;5007769;28;20054;-92
2023/12/31 04:44:03;;;;;;;2.50;1.10;;;;;;;;;;4993250;28;20036;-91
2023/12/31 04:46:28;;;;;;;2.73;1.10;;;;;;;;;;4996545;28;20034;-91
2023/12/31 04:48:54;;;;;;;4.10;1.20;;;;;;;;;;4976413;28;20010;-91
2023/12/31 04:51:25;;;;;;;1.70;1.07;;;;;;;;;;4957442;28;20026;-91
2023/12/31 04:53:51;;;;;;;4.32;1.10;;;;;;;;;;4982175;28;20375;-91
2023/12/31 04:56:20;;;;;;;2.53;1.20;;;;;;;;;;4963187;28;20027;-92
2023/12/31 04:58:46;;;;;;;1.40;1.13;;;;;;;;;;4973269;28;20281;-91
2023/12/31 05:01:11;;;;;;;3.22;1.38;;;;;;;;;;4987404;28;20078;-91
2023/12/31 05:03:37;;;;;;;1.53;1.30;;;;;;;;;;4974937;28;20534;-91
2023/12/31 05:06:03;;;;;;;1.65;1.40;;;;;;;;;;4991272;28;20022;-91
2023/12/31 05:08:28;;;;;;;2.37;1.30;;;;;;;;;;4992406;28;20046;-91
2023/12/31 05:10:54;;;;;;;2.73;1.60;;;;;;;;;;4990982;28;20027;-90
2023/12/31 05:13:19;;;;;;;2.60;1.40;;;;;;;;;;4974515;28;20537;-91
2023/12/31 05:15:44;;;;;;;3.37;1.57;;;;;;;;;;4991915;28;20125;-92
2023/12/31 05:18:10;;;;;;;3.30;1.70;;;;;;;;;;4997739;28;20097;-92
2023/12/31 05:20:35;;;;;;;2.03;1.33;;;;;;;;;;5000888;28;20109;-92
2023/12/31 05:23:00;;;;;;;4.77;1.50;;;;;;;;;;4992501;28;20019;-92
2023/12/31 05:25:25;;;;;;;2.40;1.57;;;;;;;;;;4992135;28;20057;-93
2023/12/31 05:27:50;;;;;;;5.87;1.63;;;;;;;;;;5003182;28;20106;-95
2023/12/31 05:30:16;;;;;;;3.53;2.10;;;;;;;;;;4996345;28;20517;-94
2023/12/31 05:32:41;;;;;;;3.23;1.60;;;;;;;;;;5002950;28;20011;-94
2023/12/31 05:35:06;;;;;;;3.67;1.30;;;;;;;;;;4978305;28;20382;-93
2023/12/31 05:37:32;;;;;;;2.00;1.50;;;;;;;;;;4979436;28;20089;-94
2023/12/31 05:39:57;;;;;;;1.90;1.33;;;;;;;;;;4976256;28;20029;-94
2023/12/31 05:42:27;;;;;;;2.90;1.37;;;;;;;;;;4992704;28;20084;-93
2023/12/31 05:44:52;;;;;;;2.60;1.50;;;;;;;;;;4992296;28;20297;-94
2023/12/31 05:47:17;;;;;;;2.53;1.50;;;;;;;;;;4991807;28;20673;-94
2023/12/31 05:49:43;;;;;;;3.30;1.63;;;;;;;;;;4990033;28;20822;-92
2023/12/31 05:52:08;;;;;;;2.73;1.80;;;;;;;;;;4974435;28;20064;-95
2023/12/31 05:54:36;;;;;;;1.80;1.60;;;;;;;;;;4974478;28;20106;-92
2023/12/31 05:57:01;;;;;;;3.08;1.70;;;;;;;;;;5007286;28;20030;-93
2023/12/31 05:59:27;;;;;;;3.33;1.60;;;;;;;;;;5003570;28;20339;-94
2023/12/31 06:01:52;;;;;;;1.60;1.50;;;;;;;;;;4992025;28;20390;-92
2023/12/31 06:04:18;;;;;;;1.77;1.67;;;;;;;;;;4991444;28;20077;-93
2023/12/31 06:06:43;;;;;;;4.90;1.73;;;;;;;;;;4991267;28;20045;-94
2023/12/31 06:09:09;;;;;;;3.73;1.60;;;;;;;;;;4990717;28;20022;-94
2023/12/31 06:11:34;;;;;;;4.10;1.60;;;;;;;;;;4991616;28;20019;-92
2023/12/31 06:14:02;;;;;;;2.10;1.50;;;;;;;;;;4994344;28;20046;-92
2023/12/31 06:16:28;;;;;;;3.40;1.60;;;;;;;;;;5003870;28;20065;-91
2023/12/31 06:18:53;;;;;;;2.27;1.70;;;;;;;;;;4997164;28;20015;-93
2023/12/31 06:21:18;;;;;;;2.30;1.60;;;;;;;;;;4997536;28;20026;-91
2023/12/31 06:23:43;;;;;;;1.40;1.20;;;;;;;;;;4998256;28;20069;-93
2023/12/31 06:26:08;;;;;;;2.23;1.70;;;;;;;;;;4995845;28;20026;-92
2023/12/31 06:28:33;;;;;;;2.50;1.73;;;;;;;;;;4994031;28;20558;-92
2023/12/31 06:30:59;;;;;;;3.23;1.83;;;;;;;;;;4995487;28;20026;-93
2023/12/31 06:33:25;;;;;;;2.10;1.60;;;;;;;;;;4998239;28;20084;-91
2023/12/31 06:35:50;;;;;;;1.95;1.52;;;;;;;;;;5005100;28;20026;-93
2023/12/31 06:38:16;;;;;;;2.37;1.60;;;;;;;;;;5008989;28;20037;-92
2023/12/31 06:40:41;;;;;;;2.70;1.53;;;;;;;;;;4994746;28;20019;-92
2023/12/31 06:43:06;;;;;;;2.17;1.50;;;;;;;;;;4994672;28;20084;-92
2023/12/31 06:45:31;;;;;;;3.80;1.80;;;;;;;;;;4994456;28;20034;-91
2023/12/31 06:47:56;;;;;;;1.93;1.40;;;;;;;;;;4993378;28;20057;-93
2023/12/31 06:50:21;;;;;;;1.63;1.50;;;;;;;;;;4993896;28;20031;-92
2023/12/31 06:52:47;;;;;;;2.83;1.50;;;;;;;;;;4993454;28;20124;-92
2023/12/31 06:55:12;;;;;;;2.07;1.50;;;;;;;;;;4994024;28;20025;-92
2023/12/31 06:57:37;;;;;;;2.30;1.57;;;;;;;;;;4987938;28;20027;-93
2023/12/31 07:00:03;;;;;;;2.27;1.83;;;;;;;;;;4974663;28;20023;-94
2023/12/31 07:02:28;;;;;;;4.40;1.73;;;;;;;;;;4996594;28;20029;-92
2023/12/31 07:04:53;;;;;;;1.50;1.40;;;;;;;;;;5000301;28;20489;-91
2023/12/31 07:07:19;;;;;;;2.10;1.70;;;;;;;;;;4998412;28;20285;-91
2023/12/31 07:09:44;;;;;;;2.40;1.37;;;;;;;;;;4998472;28;20033;-91
2023/12/31 07:12:10;;;;;;;2.13;1.60;;;;;;;;;;4993320;28;20030;-92
2023/12/31 07:14:36;;;;;;;1.80;1.30;;;;;;;;;;4993939;28;20080;-91
2023/12/31 07:17:01;;;;;;;2.30;1.70;;;;;;;;;;4992901;28;20479;-88
2023/12/31 07:19:27;;;;;;;2.47;1.30;;;;;;;;;;4992930;28;20069;-89
2023/12/31 07:21:52;;;;;;;2.17;1.40;;;;;;;;;;4991672;28;20023;-90
2023/12/31 07:24:17;;;;;;;2.60;1.40;;;;;;;;;;4992911;28;20022;-90
2023/12/31 07:26:42;;;;;;;1.80;1.50;;;;;;;;;;4992587;28;20014;-90
2023/12/31 07:29:08;;;;;;;1.97;1.50;;;;;;;;;;4992541;28;20037;-90
2023/12/31 07:31:35;;;;;;;1.73;1.50;;;;;;;;;;4991122;28;20062;-89
2023/12/31 07:34:00;;;;;;;1.55;1.40;;;;;;;;;;4992318;28;20038;-89
2023/12/31 07:36:26;;;;;;;1.83;1.37;;;;;;;;;;4992488;28;20030;-90
2023/12/31 07:38:51;;;;;;;1.88;1.50;;;;;;;;;;4990751;28;20097;-90
2023/12/31 07:41:16;;;;;;;2.73;1.60;;;;;;;;;;4991539;28;20105;-90
2023/12/31 07:43:42;;;;;;;2.20;1.43;;;;;;;;;;4994295;28;20022;-93
2023/12/31 07:46:08;;;;;;;2.87;1.60;;;;;;;;;;4996246;28;20019;-95
2023/12/31 07:48:33;;;;;;;1.73;1.45;;;;;;;;;;5006133;28;20023;-93
2023/12/31 07:50:59;;;;;;;2.37;1.50;;;;;;;;;;5004687;28;20061;-94
2023/12/31 07:53:24;;;;;;;2.15;1.50;;;;;;;;;;5013464;28;20017;-93
2023/12/31 07:55:49;;;;;;;2.63;1.13;;;;;;;;;;5011576;28;20029;-94
2023/12/31 07:58:14;;;;;;;1.83;1.43;;;;;;;;;;4999846;28;20042;-94
2023/12/31 08:00:40;;;;;;;4.13;1.50;;;;;;;;;;4995290;28;20497;-94
2023/12/31 08:03:05;;;;;;;2.00;1.60;;;;;;;;;;4995210;28;20010;-93
2023/12/31 08:05:32;;;;;;;1.80;1.50;;;;;;;;;;4994993;28;20448;-94
2023/12/31 08:07:57;;;;;;;2.85;1.67;;;;;;;;;;4986409;28;20440;-91
2023/12/31 08:10:23;;;;;;;5.60;1.50;;;;;;;;;;4990826;28;20050;-91
2023/12/31 08:12:48;;;;;;;1.97;1.77;;;;;;;;;;4991648;28;20018;-91
2023/12/31 08:15:13;;;;;;;1.70;1.60;;;;;;;;;;4993251;28;20098;-91
2023/12/31 08:17:38;;;;;;;2.00;1.47;;;;;;;;;;4992871;28;20034;-92
2023/12/31 08:20:05;;;;;;;1.90;1.70;;;;;;;;;;4991201;28;20026;-92
2023/12/31 08:22:30;;;;;;;2.78;1.70;;;;;;;;;;4993312;28;20033;-95
2023/12/31 08:24:55;;;;;;;2.13;1.47;;;;;;;;;;5005783;28;20038;-94
2023/12/31 08:27:20;;;;;;;1.77;1.47;;;;;;;;;;5012828;28;20007;-92
2023/12/31 08:29:46;;;;;;;2.50;1.60;;;;;;;;;;4991501;28;20494;-93
2023/12/31 08:32:11;;;;;;;3.23;1.40;;;;;;;;;;4997345;28;20022;-92
2023/12/31 08:34:37;;;;;;;2.15;1.45;;;;;;;;;;5003982;28;20041;-93
2023/12/31 08:37:02;;;;;;;3.00;1.80;;;;;;;;;;4976051;28;20018;-93
2023/12/31 08:39:27;;;;;;;2.20;1.60;;;;;;;;;;5009851;28;20040;-95
2023/12/31 08:41:53;;;;;;;2.50;1.90;;;;;;;;;;4991825;28;20018;-95
2023/12/31 08:44:18;;;;;;;2.08;1.88;;;;;;;;;;5003358;28;20034;-94
2023/12/31 08:46:43;;;;;;;2.10;1.70;;;;;;;;;;4995915;28;20093;-95
2023/12/31 08:49:09;;;;;;;2.43;1.80;;;;;;;;;;4994459;28;20398;-95
2023/12/31 08:51:34;;;;;;;2.10;1.90;;;;;;;;;;4994914;28;20050;-95
2023/12/31 08:53:59;;;;;;;1.70;1.60;;;;;;;;;;4991860;28;20030;-96
2023/12/31 08:56:24;;;;;;;2.20;1.90;;;;;;;;;;4995756;28;20117;-95
2023/12/31 08:58:49;;;;;;;2.30;1.70;;;;;;;;;;4995063;28;20115;-95
2023/12/31 09:01:16;;;;;;;2.07;1.70;;;;;;;;;;4995614;28;20030;-94
2023/12/31 09:03:41;;;;;;;1.57;1.47;;;;;;;;;;4995053;28;20836;-95
2023/12/31 09:06:09;;;;;;;3.80;1.70;;;;;;;;;;4993288;28;20049;-94
2023/12/31 09:08:34;;;;;;;1.87;1.70;;;;;;;;;;4995489;28;20288;-95
2023/12/31 09:10:59;;;;;;;3.23;2.00;;;;;;;;;;4994750;28;20061;-94
2023/12/31 09:13:32;;;;;;;1.98;1.63;;;;;;;8.60;100.00;99425.13;5084827;27;20423;-93
2023/12/31 09:15:58;;;;;;;2.10;1.90;;;;;;;8.58;100.00;99424.59;5071507;28;20032;-95
2023/12/31 09:18:24;;;;;;;2.37;1.90;;;;;;;8.56;100.00;99425.97;5071669;28;20043;-93
2023/12/31 09:20:50;;;;;;;3.00;2.70;;;;;;;8.55;100.00;99441.19;5069579;28;20025;-92
2023/12/31 09:23:17;;;;;;;2.70;1.30;;;;;;;8.59;100.00;99436.88;5077336;28;20028;-94
2023/12/31 09:25:44;;;;;;;1.50;1.40;;;;;;;8.62;100.00;99440.88;5072262;28;20040;-92
2023/12/31 09:28:09;;;;;;;1.27;1.10;;;;;;;8.65;100.00;99453.69;5084578;28;20224;-94
2023/12/31 09:30:35;;;;;;;2.60;1.80;;;;;;;8.60;100.00;99435.81;5078641;28;20017;-93
2023/12/31 09:33:00;;;;;;;2.07;1.20;;;;;;;8.66;100.00;99430.44;5083025;28;20021;-94
2023/12/31 09:35:25;;;;;;;0.77;0.77;;;;;;;8.67;100.00;99448.88;5073674;28;20431;-91
2023/12/31 09:37:51;;;;;;;1.97;1.10;;;;;;;8.67;100.00;99469.41;5072909;28;20472;-94
2023/12/31 09:40:16;;;;;;;1.92;1.10;;;;;;;8.66;100.00;99462.47;5071536;28;20020;-95
2023/12/31 09:42:49;;;;;;;2.03;1.20;;;;;;;8.67;100.00;99458.72;5051750;28;20025;-92
2023/12/31 09:45:29;;;;;;;4.18;1.80;;;;;;;8.69;100.00;99456.59;5052509;28;20112;-92
2023/12/31 09:47:59;;;;;;;1.65;1.33;;;;;;;8.72;100.00;99462.16;5071292;28;20020;-93
2023/12/31 09:50:25;;;;;;;3.37;1.70;;;;;;;8.71;100.00;99454.44;5074416;28;20103;-93
2023/12/31 09:52:54;;;;;;;3.38;1.40;;;;;;;8.69;100.00;99462.72;5087605;28;20110;-95
2023/12/31 09:55:20;;;;;;;2.38;1.08;;;;;;;8.68;100.00;99468.34;5122752;28;20055;-92
2023/12/31 09:57:47;;;;;;;3.70;1.15;;;;;;;8.68;100.00;99481.69;5096739;28;20002;-91
2023/12/31 10:00:13;;;;;;;2.77;1.20;;;;;;;8.67;100.00;99475.56;5066641;28;20044;-92
2023/12/31 10:02:39;;;;;;;2.17;1.50;;;;;;;8.64;100.00;99482.25;5067433;28;20055;-93
2023/12/31 10:05:09;;;;;;;1.27;1.15;;;;;;;8.62;100.00;99481.72;5068872;28;20029;-93
2023/12/31 10:07:34;;;;;;;4.85;1.30;;;;;;;8.64;100.00;99471.56;5098510;28;20029;-93
2023/12/31 10:10:02;;;;;;;1.70;1.00;;;;;;;8.64;100.00;99474.22;5064878;28;20040;-93
2023/12/31 10:12:29;;;;;;;4.35;0.90;;;;;;;8.75;100.00;99471.50;5076142;28;20029;-94
2023/12/31 10:14:54;;;;;;;2.03;1.10;;;;;;;8.78;100.00;99462.91;5080966;28;20035;-93
2023/12/31 10:17:20;;;;;;;1.85;0.90;;;;;;;8.85;100.00;99470.63;5085885;28;20020;-92
2023/12/31 10:19:46;;;;;;;1.70;0.87;;;;;;;8.91;100.00;99464.16;5085627;28;20041;-91
2023/12/31 10:22:13;;;;;;;1.42;0.60;;;;;;;8.90;100.00;99473.25;5085356;28;20023;-92
2023/12/31 10:24:39;;;;;;;1.23;0.60;;;;;;;8.77;100.00;99464.81;5074860;28;20020;-94
2023/12/31 10:27:06;;;;;;;2.37;0.67;;;;;;;8.55;100.00;99467.91;5064639;28;20034;-91
2023/12/31 10:29:32;;;;;;;3.13;0.90;;;;;;;8.45;100.00;99459.91;5067519;28;20091;-94
2023/12/31 10:31:58;;;;;;;1.42;0.70;;;;;;;8.38;100.00;99457.56;5048973;28;20045;-94
2023/12/31 10:34:23;;;;;;;3.40;0.80;;;;;;;8.35;100.00;99460.78;5046592;28;20083;-94
2023/12/31 10:36:48;;;;;;;4.60;0.70;;;;;;;8.32;100.00;99467.47;5066002;28;20515;-92
2023/12/31 10:39:27;;;;;;;4.95;1.35;;;;;;;8.32;100.00;99472.81;5059772;28;20035;-96
2023/12/31 10:41:56;;;;;;;2.10;0.80;;;;;;;8.20;100.00;99475.03;5055733;28;20110;-94
2023/12/31 10:44:23;;;;;;;2.88;1.17;;;;;;;8.07;100.00;99467.59;5058196;28;20047;-94
2023/12/31 10:46:52;;;;;;;2.17;1.00;;;;;;;7.94;100.00;99456.44;5045216;28;20179;-93
2023/12/31 10:49:22;;;;;;;3.42;1.10;;;;;;;7.86;100.00;99467.66;5036914;28;20037;-92
2023/12/31 10:51:49;;;;;;;3.85;1.30;;;;;;;7.78;100.00;99473.59;5036232;28;20025;-93
2023/12/31 10:54:23;;;;;;;3.70;2.50;;;;;;;7.76;100.00;99491.72;5050402;28;20025;-92
2023/12/31 10:56:50;;;;;;;4.70;1.45;;;;;;;7.72;100.00;99473.59;5056718;28;20165;-92
2023/12/31 10:59:16;;;;;;;2.90;1.45;;;;;;;7.80;100.00;99482.13;5064019;28;20396;-92
2023/12/31 11:01:43;;;;;;;6.13;1.23;;;;;;;7.85;100.00;99464.22;5062925;28;20533;-93
2023/12/31 11:04:11;;;;;;;5.72;2.50;;;;;;;7.88;100.00;99471.69;5062875;28;20062;-92
2023/12/31 11:06:38;;;;;;;5.67;1.87;;;;;;;7.90;100.00;99468.72;5065673;28;20020;-92
2023/12/31 11:09:05;;;;;;;11.83;5.17;;;;;;;8.00;100.00;99482.03;5057558;28;20279;-92
2023/12/31 11:11:31;;;;;;;8.00;3.55;;;;;;;7.92;100.00;99455.94;5055328;28;20134;-90
2023/12/31 11:13:58;;;;;;;9.63;4.70;;;;;;;8.08;100.00;99472.66;5055886;28;20021;-91
2023/12/31 11:16:45;;;;;;;5.55;3.25;;;;;;;8.24;100.00;99470.69;5056285;28;20033;-92
2023/12/31 11:19:30;;;;;;;5.65;3.47;;;;;;;8.34;100.00;99477.84;5056151;28;20040;-91
2023/12/31 11:22:33;;;;;;;4.28;2.10;;;;;;;8.51;100.00;99471.38;5035894;28;20030;-92
2023/12/31 11:25:00;;;;;;;2.72;1.48;;;;;;;8.66;100.00;99478.50;5053711;28;20044;-92
2023/12/31 11:27:31;;;;;;;2.83;1.20;;;;;;;8.81;100.00;99485.63;5056865;28;20025;-92
2023/12/31 11:29:58;;;;;;;7.00;1.87;;;;;;;9.00;100.00;99477.72;5055182;28;20318;-92
2023/12/31 11:32:25;;;;;;;7.05;2.80;;;;;;;9.21;100.00;99470.31;5056498;28;20037;-91
2023/12/31 11:34:54;;;;;;;4.15;1.55;;;;;;;9.38;100.00;99484.06;5054691;28;20395;-92
2023/12/31 11:37:21;;;;;;;2.70;0.95;;;;;;;9.49;100.00;99489.28;5054868;28;20059;-93
2023/12/31 11:39:47;;;;;;;4.30;2.55;;;;;;;9.49;100.00;99468.72;5049960;28;20040;-92
2023/12/31 11:42:13;;;;;;;2.37;1.13;;;;;;;9.45;100.00;99480.25;5035661;28;20076;-93
2023/12/31 11:44:43;;;;;;;5.13;2.30;;;;;;;9.39;100.00;99484.84;5062402;28;20299;-92
2023/12/31 11:47:26;;;;;;;5.22;2.38;;;;;;;9.10;100.00;99485.66;5059281;28;20119;-93
2023/12/31 11:49:58;;;;;;;2.80;0.55;;;;;;;8.92;100.00;99498.63;5061013;28;20691;-93
2023/12/31 11:52:38;;;;;;;2.20;0.70;;;;;;;8.79;100.00;99491.22;5065117;28;20037;-93
2023/12/31 11:55:03;;;;;;;3.97;0.83;;;;;;;8.66;100.00;99490.00;5060921;28;20163;-94
2023/12/31 11:57:30;;;;;;;3.67;0.70;;;;;;;8.44;100.00;99477.00;5055094;28;20056;-94
2023/12/31 11:59:55;;;;;;;1.85;0.70;;;;;;;8.37;100.00;99492.53;5055034;28;20045;-94
2023/12/31 12:02:21;;;;;;;1.80;0.60;;;;;;;8.28;100.00;99481.66;5053641;28;20025;-94
2023/12/31 12:04:46;;;;;;;2.77;0.67;;;;;;;8.30;100.00;99482.97;5050364;28;20048;-95
2023/12/31 12:07:11;;;;;;;2.70;0.80;;;;;;;8.27;100.00;99491.50;5048629;28;20418;-94
2023/12/31 12:09:36;;;;;;;4.07;0.80;;;;;;;8.27;100.00;99498.72;5032343;28;20779;-94
2023/12/31 12:12:05;;;;;;;7.03;2.27;;;;;;;8.33;100.00;99492.28;5031831;28;20044;-93
2023/12/31 12:14:31;;;;;;;3.38;1.33;;;;;;;8.34;100.00;99492.00;5039608;28;20033;-94
2023/12/31 12:16:57;;;;;;;7.10;4.53;;;;;;;8.32;100.00;99486.16;5052852;28;20354;-93
2023/12/31 12:19:23;;;;;;;3.17;1.23;;;;;;;8.24;100.00;99477.94;5053974;28;20409;-93
2023/12/31 12:21:50;;;;;;;10.43;4.97;;;;;;;8.33;100.00;99493.09;5053590;28;20031;-94
2023/12/31 12:24:17;;;;;;;3.08;1.10;;;;;;;8.36;100.00;99493.63;5056052;28;20025;-93
2023/12/31 12:26:44;;;;;;;2.17;0.97;;;;;;;8.24;100.00;99493.94;5069180;28;20062;-94
2023/12/31 12:29:10;;;;;;;6.17;2.87;;;;;;;8.18;100.00;99499.28;5057939;28;20275;-93
2023/12/31 12:31:38;;;;;;;5.43;1.75;;;;;;;8.01;100.00;99486.31;5058497;28;20025;-94
2023/12/31 12:34:04;;;;;;;5.35;1.70;;;;;;;7.97;100.00;99487.91;5063157;28;20642;-94
2023/12/31 12:36:31;;;;;;;7.93;4.03;;;;;;;7.95;100.00;99484.72;5066607;28;20013;-94
2023/12/31 12:39:02;;;;;;;7.80;2.78;;;;;;;7.94;100.00;99491.13;5048898;28;20021;-93
2023/12/31 12:41:30;;;;;;;10.33;3.60;;;;;;;7.83;100.00;99492.25;5058400;28;20112;-95
2023/12/31 12:44:00;;;;;;;6.87;2.10;;;;;;;7.82;100.00;99494.09;5033637;28;20274;-94
2023/12/31 12:46:30;;;;;;;6.07;2.47;;;;;;;7.80;100.00;99498.91;5035515;28;20104;-92
2023/12/31 12:48:57;;;;;;;5.13;2.55;;;;;;;7.82;100.00;99514.66;5050929;28;20037;-94
2023/12/31 12:51:26;;;;;;;3.85;1.30;;;;;;;7.85;100.00;99508.78;5050007;28;20025;-94
2023/12/31 12:53:53;;;;;;;6.97;1.77;;;;;;;7.88;100.00;99513.53;5050885;28;20476;-96
2023/12/31 12:56:19;;;;;;;9.17;2.17;;;;;;;7.85;100.00;99503.44;5049703;28;20534;-94
2023/12/31 12:58:45;;;;;;;2.73;1.23;;;;;;;7.87;100.00;99523.44;5051739;28;20906;-93
2023/12/31 13:01:10;;;;;;;5.03;1.20;;;;;;;7.96;100.00;99526.34;5049036;28;20025;-94
2023/12/31 13:03:37;;;;;;;4.97;1.00;;;;;;;8.04;100.00;99523.09;5049740;28;20709;-93
2023/12/31 13:06:03;;;;;;;6.20;1.35;;;;;;;8.14;100.00;99524.91;5048339;28;20033;-92
2023/12/31 13:08:28;;;;;;;6.10;1.17;;;;;;;8.26;100.00;99524.59;5050031;28;20031;-94
2023/12/31 13:10:53;;;;;;;4.20;1.13;;;;;;;8.33;100.00;99516.28;5067338;28;20032;-93
2023/12/31 13:13:19;;;;;;;6.43;1.00;;;;;;;8.45;100.00;99522.13;5052585;28;20147;-93
2023/12/31 13:15:45;;;;;;;8.87;2.10;;;;;;;8.49;100.00;99517.84;5061128;28;20033;-94
2023/12/31 13:18:13;;;;;;;5.05;1.33;;;;;;;8.63;100.00;99522.59;5038534;28;20017;-93
2023/12/31 13:20:42;;;;;;;6.30;0.83;;;;;;;8.60;100.00;99517.78;5057005;28;20029;-94
2023/12/31 13:23:08;;;;;;;8.53;1.27;;;;;;;8.66;100.00;99521.22;5044110;28;20303;-93
2023/12/31 13:25:35;;;;;;;3.78;1.05;;;;;;;8.66;100.00;99521.22;5049535;28;20021;-93
2023/12/31 13:28:00;;;;;;;7.70;1.20;;;;;;;8.69;100.00;99520.69;5039731;28;20512;-93